sensor_id;sensor_type;location;lat;lon;timestamp;P1;durP1;ratioP1;P2;durP2;ratioP2
3343;SDS011;1685;53.104;8.228;2023-02-18T00:01:18;8.90;;;2.67;;
3343;SDS011;1685;53.104;8.228;2023-02-18T00:03:45;10.77;;;3.20;;
3343;SDS011;1685;53.104;8.228;2023-02-18T00:06:13;10.67;;;3.17;;
3343;SDS011;1685;53.104;8.228;2023-02-18T00:08:42;19.27;;;3.67;;
3343;SDS011;1685;53.104;8.228;2023-02-18T00:11:10;6.87;;;2.63;;
3343;SDS011;1685;53.104;8.228;2023-02-18T00:13:38;10.13;;;3.03;;
3343;SDS011;1685;53.104;8.228;2023-02-18T00:16:06;15.40;;;3.07;;
3343;SDS011;1685;53.104;8.228;2023-02-18T00:18:34;12.83;;;3.00;;
3343;SDS011;1685;53.104;8.228;2023-02-18T00:21:02;11.17;;;2.80;;
3343;SDS011;1685;53.104;8.228;2023-02-18T00:23:30;16.40;;;3.10;;
3343;SDS011;1685;53.104;8.228;2023-02-18T00:26:02;18.53;;;3.23;;
3343;SDS011;1685;53.104;8.228;2023-02-18T00:28:30;12.67;;;3.63;;
3343;SDS011;1685;53.104;8.228;2023-02-18T00:30:57;11.33;;;2.67;;
3343;SDS011;1685;53.104;8.228;2023-02-18T00:33:24;13.13;;;3.20;;
3343;SDS011;1685;53.104;8.228;2023-02-18T00:35:51;10.30;;;3.00;;
3343;SDS011;1685;53.104;8.228;2023-02-18T00:38:17;9.33;;;2.93;;
3343;SDS011;1685;53.104;8.228;2023-02-18T00:40:44;13.73;;;2.67;;
3343;SDS011;1685;53.104;8.228;2023-02-18T00:43:13;11.70;;;2.60;;
3343;SDS011;1685;53.104;8.228;2023-02-18T00:45:40;15.50;;;2.67;;
3343;SDS011;1685;53.104;8.228;2023-02-18T00:48:07;12.53;;;2.50;;
3343;SDS011;1685;53.104;8.228;2023-02-18T00:50:33;8.13;;;2.90;;
3343;SDS011;1685;53.104;8.228;2023-02-18T00:53:00;17.20;;;3.33;;
3343;SDS011;1685;53.104;8.228;2023-02-18T00:55:27;15.03;;;2.80;;
3343;SDS011;1685;53.104;8.228;2023-02-18T00:57:54;10.37;;;2.57;;
3343;SDS011;1685;53.104;8.228;2023-02-18T01:00:22;23.60;;;2.70;;
3343;SDS011;1685;53.104;8.228;2023-02-18T01:02:50;16.27;;;3.47;;
3343;SDS011;1685;53.104;8.228;2023-02-18T01:05:18;11.57;;;2.70;;
3343;SDS011;1685;53.104;8.228;2023-02-18T01:07:44;12.83;;;2.87;;
3343;SDS011;1685;53.104;8.228;2023-02-18T01:10:11;16.53;;;2.70;;
3343;SDS011;1685;53.104;8.228;2023-02-18T01:12:38;15.37;;;3.03;;
3343;SDS011;1685;53.104;8.228;2023-02-18T01:15:05;13.67;;;2.80;;
3343;SDS011;1685;53.104;8.228;2023-02-18T01:17:34;12.47;;;3.27;;
3343;SDS011;1685;53.104;8.228;2023-02-18T01:20:01;14.93;;;2.70;;
3343;SDS011;1685;53.104;8.228;2023-02-18T01:22:28;11.87;;;3.00;;
3343;SDS011;1685;53.104;8.228;2023-02-18T01:24:55;15.37;;;2.83;;
3343;SDS011;1685;53.104;8.228;2023-02-18T01:27:22;11.37;;;3.03;;
3343;SDS011;1685;53.104;8.228;2023-02-18T01:29:48;16.70;;;3.47;;
3343;SDS011;1685;53.104;8.228;2023-02-18T01:32:15;10.40;;;2.40;;
3343;SDS011;1685;53.104;8.228;2023-02-18T01:34:43;17.90;;;3.53;;
3343;SDS011;1685;53.104;8.228;2023-02-18T01:37:10;10.93;;;2.30;;
3343;SDS011;1685;53.104;8.228;2023-02-18T01:39:37;17.63;;;2.77;;
3343;SDS011;1685;53.104;8.228;2023-02-18T01:42:04;12.23;;;3.00;;
3343;SDS011;1685;53.104;8.228;2023-02-18T01:44:32;9.10;;;3.00;;
3343;SDS011;1685;53.104;8.228;2023-02-18T01:46:59;6.43;;;2.30;;
3343;SDS011;1685;53.104;8.228;2023-02-18T01:49:26;7.10;;;2.30;;
3343;SDS011;1685;53.104;8.228;2023-02-18T01:51:59;11.10;;;2.10;;
3343;SDS011;1685;53.104;8.228;2023-02-18T01:54:30;4.30;;;2.07;;
3343;SDS011;1685;53.104;8.228;2023-02-18T01:56:59;11.47;;;2.63;;
3343;SDS011;1685;53.104;8.228;2023-02-18T01:59:29;7.67;;;2.40;;
3343;SDS011;1685;53.104;8.228;2023-02-18T02:01:58;8.77;;;2.03;;
3343;SDS011;1685;53.104;8.228;2023-02-18T02:04:25;7.73;;;2.53;;
3343;SDS011;1685;53.104;8.228;2023-02-18T02:06:52;7.30;;;2.50;;
3343;SDS011;1685;53.104;8.228;2023-02-18T02:09:21;14.17;;;3.03;;
3343;SDS011;1685;53.104;8.228;2023-02-18T02:12:12;11.00;;;2.47;;
3343;SDS011;1685;53.104;8.228;2023-02-18T02:14:54;11.53;;;2.80;;
3343;SDS011;1685;53.104;8.228;2023-02-18T02:17:36;17.50;;;2.20;;
3343;SDS011;1685;53.104;8.228;2023-02-18T02:20:30;6.77;;;2.53;;
3343;SDS011;1685;53.104;8.228;2023-02-18T02:26:41;20.50;;;2.97;;
3343;SDS011;1685;53.104;8.228;2023-02-18T02:32:41;10.30;;;2.37;;
3343;SDS011;1685;53.104;8.228;2023-02-18T02:35:19;7.50;;;2.50;;
3343;SDS011;1685;53.104;8.228;2023-02-18T02:37:51;4.83;;;1.97;;
3343;SDS011;1685;53.104;8.228;2023-02-18T02:40:26;9.50;;;2.60;;
3343;SDS011;1685;53.104;8.228;2023-02-18T02:43:03;13.93;;;2.40;;
3343;SDS011;1685;53.104;8.228;2023-02-18T02:45:37;7.33;;;2.50;;
3343;SDS011;1685;53.104;8.228;2023-02-18T02:48:14;17.83;;;2.73;;
3343;SDS011;1685;53.104;8.228;2023-02-18T02:50:50;9.10;;;2.87;;
3343;SDS011;1685;53.104;8.228;2023-02-18T02:53:20;11.93;;;2.87;;
3343;SDS011;1685;53.104;8.228;2023-02-18T02:55:51;16.00;;;2.10;;
3343;SDS011;1685;53.104;8.228;2023-02-18T02:58:19;12.40;;;2.60;;
3343;SDS011;1685;53.104;8.228;2023-02-18T03:00:49;14.10;;;2.50;;
3343;SDS011;1685;53.104;8.228;2023-02-18T03:03:32;8.83;;;2.10;;
3343;SDS011;1685;53.104;8.228;2023-02-18T03:06:18;13.30;;;2.83;;
3343;SDS011;1685;53.104;8.228;2023-02-18T03:08:57;9.77;;;2.50;;
3343;SDS011;1685;53.104;8.228;2023-02-18T03:11:34;17.83;;;2.80;;
3343;SDS011;1685;53.104;8.228;2023-02-18T03:14:09;6.37;;;2.17;;
3343;SDS011;1685;53.104;8.228;2023-02-18T03:16:42;14.33;;;2.87;;
3343;SDS011;1685;53.104;8.228;2023-02-18T03:19:13;16.90;;;3.20;;
3343;SDS011;1685;53.104;8.228;2023-02-18T03:21:50;11.97;;;2.33;;
3343;SDS011;1685;53.104;8.228;2023-02-18T03:24:22;12.33;;;2.30;;
3343;SDS011;1685;53.104;8.228;2023-02-18T03:26:53;3.43;;;2.07;;
3343;SDS011;1685;53.104;8.228;2023-02-18T03:29:23;10.57;;;3.10;;
3343;SDS011;1685;53.104;8.228;2023-02-18T03:31:52;13.40;;;2.80;;
3343;SDS011;1685;53.104;8.228;2023-02-18T03:34:22;8.23;;;2.67;;
3343;SDS011;1685;53.104;8.228;2023-02-18T03:36:52;10.90;;;1.87;;
3343;SDS011;1685;53.104;8.228;2023-02-18T03:39:22;13.20;;;3.30;;
3343;SDS011;1685;53.104;8.228;2023-02-18T03:41:51;17.80;;;3.63;;
3343;SDS011;1685;53.104;8.228;2023-02-18T03:44:18;12.07;;;2.73;;
3343;SDS011;1685;53.104;8.228;2023-02-18T03:46:45;9.23;;;2.70;;
3343;SDS011;1685;53.104;8.228;2023-02-18T03:49:12;9.40;;;2.57;;
3343;SDS011;1685;53.104;8.228;2023-02-18T03:51:40;9.73;;;2.40;;
3343;SDS011;1685;53.104;8.228;2023-02-18T03:54:09;11.83;;;3.53;;
3343;SDS011;1685;53.104;8.228;2023-02-18T03:56:38;12.73;;;3.73;;
3343;SDS011;1685;53.104;8.228;2023-02-18T03:59:05;5.00;;;2.33;;
3343;SDS011;1685;53.104;8.228;2023-02-18T04:01:32;11.33;;;2.47;;
3343;SDS011;1685;53.104;8.228;2023-02-18T04:03:59;7.97;;;2.67;;
3343;SDS011;1685;53.104;8.228;2023-02-18T04:06:27;6.30;;;2.20;;
3343;SDS011;1685;53.104;8.228;2023-02-18T04:08:54;8.90;;;3.00;;
3343;SDS011;1685;53.104;8.228;2023-02-18T04:11:22;9.50;;;2.90;;
3343;SDS011;1685;53.104;8.228;2023-02-18T04:13:48;13.10;;;2.87;;
3343;SDS011;1685;53.104;8.228;2023-02-18T04:16:15;9.43;;;2.27;;
3343;SDS011;1685;53.104;8.228;2023-02-18T04:18:42;6.80;;;2.17;;
3343;SDS011;1685;53.104;8.228;2023-02-18T04:21:09;14.90;;;3.40;;
3343;SDS011;1685;53.104;8.228;2023-02-18T04:23:36;6.40;;;2.30;;
3343;SDS011;1685;53.104;8.228;2023-02-18T04:26:03;11.37;;;2.70;;
3343;SDS011;1685;53.104;8.228;2023-02-18T04:28:31;10.93;;;2.50;;
3343;SDS011;1685;53.104;8.228;2023-02-18T04:30:58;8.23;;;2.70;;
3343;SDS011;1685;53.104;8.228;2023-02-18T04:33:25;12.03;;;2.77;;
3343;SDS011;1685;53.104;8.228;2023-02-18T04:35:51;14.97;;;3.13;;
3343;SDS011;1685;53.104;8.228;2023-02-18T04:38:18;11.77;;;3.40;;
3343;SDS011;1685;53.104;8.228;2023-02-18T04:40:45;11.97;;;4.00;;
3343;SDS011;1685;53.104;8.228;2023-02-18T04:43:11;17.30;;;4.90;;
3343;SDS011;1685;53.104;8.228;2023-02-18T04:45:39;11.43;;;4.47;;
3343;SDS011;1685;53.104;8.228;2023-02-18T04:48:06;18.80;;;5.00;;
3343;SDS011;1685;53.104;8.228;2023-02-18T04:50:33;16.13;;;6.10;;
3343;SDS011;1685;53.104;8.228;2023-02-18T04:53:00;13.70;;;5.73;;
3343;SDS011;1685;53.104;8.228;2023-02-18T04:55:27;17.87;;;5.60;;
3343;SDS011;1685;53.104;8.228;2023-02-18T04:57:53;11.00;;;5.10;;
3343;SDS011;1685;53.104;8.228;2023-02-18T05:00:20;20.53;;;5.77;;
3343;SDS011;1685;53.104;8.228;2023-02-18T05:02:48;15.63;;;5.47;;
3343;SDS011;1685;53.104;8.228;2023-02-18T05:05:15;10.30;;;5.70;;
3343;SDS011;1685;53.104;8.228;2023-02-18T05:07:41;18.27;;;5.43;;
3343;SDS011;1685;53.104;8.228;2023-02-18T05:10:08;14.03;;;6.43;;
3343;SDS011;1685;53.104;8.228;2023-02-18T05:12:36;18.70;;;5.73;;
3343;SDS011;1685;53.104;8.228;2023-02-18T05:15:04;19.77;;;5.73;;
3343;SDS011;1685;53.104;8.228;2023-02-18T05:17:31;23.83;;;6.30;;
3343;SDS011;1685;53.104;8.228;2023-02-18T05:19:59;18.60;;;6.33;;
3343;SDS011;1685;53.104;8.228;2023-02-18T05:22:26;12.93;;;6.17;;
3343;SDS011;1685;53.104;8.228;2023-02-18T05:24:53;27.20;;;7.40;;
3343;SDS011;1685;53.104;8.228;2023-02-18T05:27:20;15.83;;;5.80;;
3343;SDS011;1685;53.104;8.228;2023-02-18T05:29:46;11.57;;;6.13;;
3343;SDS011;1685;53.104;8.228;2023-02-18T05:32:13;27.57;;;8.57;;
3343;SDS011;1685;53.104;8.228;2023-02-18T05:34:40;21.27;;;7.87;;
3343;SDS011;1685;53.104;8.228;2023-02-18T05:37:08;22.03;;;8.10;;
3343;SDS011;1685;53.104;8.228;2023-02-18T05:39:35;26.50;;;9.77;;
3343;SDS011;1685;53.104;8.228;2023-02-18T05:42:01;23.20;;;8.57;;
3343;SDS011;1685;53.104;8.228;2023-02-18T05:44:28;37.80;;;9.50;;
3343;SDS011;1685;53.104;8.228;2023-02-18T05:46:55;18.90;;;8.80;;
3343;SDS011;1685;53.104;8.228;2023-02-18T05:49:22;23.67;;;8.83;;
3343;SDS011;1685;53.104;8.228;2023-02-18T05:51:49;17.93;;;8.30;;
3343;SDS011;1685;53.104;8.228;2023-02-18T05:54:17;16.83;;;8.30;;
3343;SDS011;1685;53.104;8.228;2023-02-18T05:56:44;30.93;;;8.93;;
3343;SDS011;1685;53.104;8.228;2023-02-18T05:59:11;22.27;;;8.90;;
3343;SDS011;1685;53.104;8.228;2023-02-18T06:01:38;19.30;;;8.80;;
3343;SDS011;1685;53.104;8.228;2023-02-18T06:04:05;25.30;;;10.60;;
3343;SDS011;1685;53.104;8.228;2023-02-18T06:06:32;27.97;;;11.27;;
3343;SDS011;1685;53.104;8.228;2023-02-18T06:08:59;22.17;;;11.37;;
3343;SDS011;1685;53.104;8.228;2023-02-18T06:11:27;22.47;;;10.20;;
3343;SDS011;1685;53.104;8.228;2023-02-18T06:13:54;25.57;;;10.97;;
3343;SDS011;1685;53.104;8.228;2023-02-18T06:16:20;27.40;;;11.40;;
3343;SDS011;1685;53.104;8.228;2023-02-18T06:18:47;30.87;;;12.70;;
3343;SDS011;1685;53.104;8.228;2023-02-18T06:21:14;29.30;;;10.90;;
3343;SDS011;1685;53.104;8.228;2023-02-18T06:23:41;24.73;;;11.23;;
3343;SDS011;1685;53.104;8.228;2023-02-18T06:26:07;31.07;;;13.60;;
3343;SDS011;1685;53.104;8.228;2023-02-18T06:28:35;31.73;;;13.37;;
3343;SDS011;1685;53.104;8.228;2023-02-18T06:31:02;28.10;;;13.10;;
3343;SDS011;1685;53.104;8.228;2023-02-18T06:33:29;33.77;;;13.37;;
3343;SDS011;1685;53.104;8.228;2023-02-18T06:35:56;29.27;;;14.50;;
3343;SDS011;1685;53.104;8.228;2023-02-18T06:38:25;34.37;;;15.33;;
3343;SDS011;1685;53.104;8.228;2023-02-18T06:40:52;29.80;;;15.53;;
3343;SDS011;1685;53.104;8.228;2023-02-18T06:43:19;32.67;;;13.90;;
3343;SDS011;1685;53.104;8.228;2023-02-18T06:45:48;27.27;;;14.80;;
3343;SDS011;1685;53.104;8.228;2023-02-18T06:48:14;32.43;;;15.40;;
3343;SDS011;1685;53.104;8.228;2023-02-18T06:50:41;29.03;;;15.20;;
3343;SDS011;1685;53.104;8.228;2023-02-18T06:53:08;30.70;;;17.03;;
3343;SDS011;1685;53.104;8.228;2023-02-18T06:55:35;38.97;;;17.13;;
3343;SDS011;1685;53.104;8.228;2023-02-18T06:58:02;37.00;;;17.13;;
3343;SDS011;1685;53.104;8.228;2023-02-18T07:00:29;44.43;;;17.90;;
3343;SDS011;1685;53.104;8.228;2023-02-18T07:02:58;33.10;;;18.80;;
3343;SDS011;1685;53.104;8.228;2023-02-18T07:05:24;39.87;;;19.90;;
3343;SDS011;1685;53.104;8.228;2023-02-18T07:07:51;44.23;;;20.70;;
3343;SDS011;1685;53.104;8.228;2023-02-18T07:10:18;47.07;;;20.40;;
3343;SDS011;1685;53.104;8.228;2023-02-18T07:12:45;43.80;;;23.67;;
3343;SDS011;1685;53.104;8.228;2023-02-18T07:15:12;60.10;;;25.60;;
3343;SDS011;1685;53.104;8.228;2023-02-18T07:17:39;61.20;;;25.73;;
3343;SDS011;1685;53.104;8.228;2023-02-18T07:20:07;61.77;;;25.57;;
3343;SDS011;1685;53.104;8.228;2023-02-18T07:22:34;58.37;;;25.60;;
3343;SDS011;1685;53.104;8.228;2023-02-18T07:25:01;58.53;;;24.50;;
3343;SDS011;1685;53.104;8.228;2023-02-18T07:27:28;67.40;;;28.47;;
3343;SDS011;1685;53.104;8.228;2023-02-18T07:29:55;63.20;;;27.10;;
3343;SDS011;1685;53.104;8.228;2023-02-18T07:32:22;75.27;;;27.30;;
3343;SDS011;1685;53.104;8.228;2023-02-18T07:34:49;73.77;;;27.37;;
3343;SDS011;1685;53.104;8.228;2023-02-18T07:37:18;63.77;;;23.97;;
3343;SDS011;1685;53.104;8.228;2023-02-18T07:39:45;64.83;;;25.33;;
3343;SDS011;1685;53.104;8.228;2023-02-18T07:42:11;66.70;;;24.20;;
3343;SDS011;1685;53.104;8.228;2023-02-18T07:44:39;72.50;;;23.77;;
3343;SDS011;1685;53.104;8.228;2023-02-18T07:47:06;60.70;;;22.60;;
3343;SDS011;1685;53.104;8.228;2023-02-18T07:49:35;65.20;;;22.13;;
3343;SDS011;1685;53.104;8.228;2023-02-18T07:52:02;67.03;;;19.30;;
3343;SDS011;1685;53.104;8.228;2023-02-18T07:54:31;51.43;;;16.70;;
3343;SDS011;1685;53.104;8.228;2023-02-18T07:56:57;48.80;;;17.30;;
3343;SDS011;1685;53.104;8.228;2023-02-18T07:59:24;43.67;;;15.67;;
3343;SDS011;1685;53.104;8.228;2023-02-18T08:01:51;41.60;;;14.10;;
3343;SDS011;1685;53.104;8.228;2023-02-18T08:04:18;33.07;;;12.53;;
3343;SDS011;1685;53.104;8.228;2023-02-18T08:06:45;35.57;;;13.47;;
3343;SDS011;1685;53.104;8.228;2023-02-18T08:09:13;35.73;;;12.23;;
3343;SDS011;1685;53.104;8.228;2023-02-18T08:11:42;31.43;;;11.17;;
3343;SDS011;1685;53.104;8.228;2023-02-18T08:14:09;29.63;;;11.17;;
3343;SDS011;1685;53.104;8.228;2023-02-18T08:16:36;21.10;;;9.10;;
3343;SDS011;1685;53.104;8.228;2023-02-18T08:19:03;22.70;;;9.47;;
3343;SDS011;1685;53.104;8.228;2023-02-18T08:21:30;24.93;;;8.43;;
3343;SDS011;1685;53.104;8.228;2023-02-18T08:23:57;24.43;;;9.00;;
3343;SDS011;1685;53.104;8.228;2023-02-18T08:26:24;19.20;;;7.40;;
3343;SDS011;1685;53.104;8.228;2023-02-18T08:28:52;17.50;;;8.07;;
3343;SDS011;1685;53.104;8.228;2023-02-18T08:31:20;18.77;;;7.57;;
3343;SDS011;1685;53.104;8.228;2023-02-18T08:33:48;13.03;;;6.30;;
3343;SDS011;1685;53.104;8.228;2023-02-18T08:36:16;16.10;;;7.27;;
3343;SDS011;1685;53.104;8.228;2023-02-18T08:38:43;18.00;;;7.37;;
3343;SDS011;1685;53.104;8.228;2023-02-18T08:41:10;14.43;;;6.90;;
3343;SDS011;1685;53.104;8.228;2023-02-18T08:43:38;12.17;;;6.43;;
3343;SDS011;1685;53.104;8.228;2023-02-18T08:46:06;15.43;;;6.50;;
3343;SDS011;1685;53.104;8.228;2023-02-18T08:48:33;10.40;;;6.33;;
3343;SDS011;1685;53.104;8.228;2023-02-18T08:51:07;13.57;;;6.87;;
3343;SDS011;1685;53.104;8.228;2023-02-18T08:53:36;13.33;;;6.57;;
3343;SDS011;1685;53.104;8.228;2023-02-18T08:56:04;9.50;;;5.30;;
3343;SDS011;1685;53.104;8.228;2023-02-18T08:58:31;8.90;;;5.93;;
3343;SDS011;1685;53.104;8.228;2023-02-18T09:01:01;13.13;;;6.17;;
3343;SDS011;1685;53.104;8.228;2023-02-18T09:03:29;8.33;;;5.87;;
3343;SDS011;1685;53.104;8.228;2023-02-18T09:05:56;14.97;;;7.13;;
3343;SDS011;1685;53.104;8.228;2023-02-18T09:08:24;10.67;;;6.93;;
3343;SDS011;1685;53.104;8.228;2023-02-18T09:10:53;11.73;;;6.27;;
3343;SDS011;1685;53.104;8.228;2023-02-18T09:13:20;12.07;;;6.20;;
3343;SDS011;1685;53.104;8.228;2023-02-18T09:15:54;11.40;;;6.90;;
3343;SDS011;1685;53.104;8.228;2023-02-18T09:18:22;10.80;;;6.90;;
3343;SDS011;1685;53.104;8.228;2023-02-18T09:20:50;11.37;;;7.60;;
3343;SDS011;1685;53.104;8.228;2023-02-18T09:23:17;18.23;;;9.50;;
3343;SDS011;1685;53.104;8.228;2023-02-18T09:25:45;15.40;;;9.00;;
3343;SDS011;1685;53.104;8.228;2023-02-18T09:28:12;18.53;;;9.67;;
3343;SDS011;1685;53.104;8.228;2023-02-18T09:30:38;16.60;;;8.77;;
3343;SDS011;1685;53.104;8.228;2023-02-18T09:33:05;16.73;;;9.67;;
3343;SDS011;1685;53.104;8.228;2023-02-18T09:35:32;17.50;;;9.67;;
3343;SDS011;1685;53.104;8.228;2023-02-18T09:38:01;19.40;;;10.47;;
3343;SDS011;1685;53.104;8.228;2023-02-18T09:40:28;17.90;;;10.30;;
3343;SDS011;1685;53.104;8.228;2023-02-18T09:42:59;18.60;;;10.67;;
3343;SDS011;1685;53.104;8.228;2023-02-18T09:45:26;26.40;;;12.70;;
3343;SDS011;1685;53.104;8.228;2023-02-18T09:47:53;23.17;;;13.50;;
3343;SDS011;1685;53.104;8.228;2023-02-18T09:50:21;21.70;;;12.30;;
3343;SDS011;1685;53.104;8.228;2023-02-18T09:52:51;24.60;;;12.20;;
3343;SDS011;1685;53.104;8.228;2023-02-18T09:55:21;27.77;;;15.10;;
3343;SDS011;1685;53.104;8.228;2023-02-18T09:57:50;38.60;;;15.57;;
3343;SDS011;1685;53.104;8.228;2023-02-18T10:00:20;24.07;;;13.60;;
3343;SDS011;1685;53.104;8.228;2023-02-18T10:02:54;35.53;;;14.30;;
3343;SDS011;1685;53.104;8.228;2023-02-18T10:05:22;27.35;;;13.90;;
3343;SDS011;1685;53.104;8.228;2023-02-18T10:07:52;21.60;;;12.43;;
3343;SDS011;1685;53.104;8.228;2023-02-18T10:10:26;24.50;;;13.70;;
3343;SDS011;1685;53.104;8.228;2023-02-18T10:13:01;24.43;;;12.07;;
3343;SDS011;1685;53.104;8.228;2023-02-18T10:15:29;26.07;;;12.13;;
3343;SDS011;1685;53.104;8.228;2023-02-18T10:17:57;19.20;;;10.87;;
3343;SDS011;1685;53.104;8.228;2023-02-18T10:20:25;21.20;;;11.10;;
3343;SDS011;1685;53.104;8.228;2023-02-18T10:22:56;22.70;;;11.27;;
3343;SDS011;1685;53.104;8.228;2023-02-18T10:25:27;34.73;;;11.40;;
3343;SDS011;1685;53.104;8.228;2023-02-18T10:27:54;18.93;;;10.70;;
3343;SDS011;1685;53.104;8.228;2023-02-18T10:30:26;26.03;;;10.80;;
3343;SDS011;1685;53.104;8.228;2023-02-18T10:32:59;16.10;;;8.70;;
3343;SDS011;1685;53.104;8.228;2023-02-18T10:35:37;21.23;;;9.33;;
3343;SDS011;1685;53.104;8.228;2023-02-18T10:38:11;18.57;;;7.53;;
3343;SDS011;1685;53.104;8.228;2023-02-18T10:40:48;14.43;;;7.63;;
3343;SDS011;1685;53.104;8.228;2023-02-18T10:43:21;11.10;;;6.90;;
3343;SDS011;1685;53.104;8.228;2023-02-18T10:45:56;9.30;;;6.20;;
3343;SDS011;1685;53.104;8.228;2023-02-18T10:48:40;8.40;;;5.90;;
3343;SDS011;1685;53.104;8.228;2023-02-18T10:51:15;8.00;;;6.50;;
3343;SDS011;1685;53.104;8.228;2023-02-18T10:53:47;11.20;;;6.13;;
3343;SDS011;1685;53.104;8.228;2023-02-18T10:56:32;9.73;;;5.60;;
3343;SDS011;1685;53.104;8.228;2023-02-18T10:59:12;5.70;;;4.83;;
3343;SDS011;1685;53.104;8.228;2023-02-18T11:01:43;7.53;;;5.70;;
3343;SDS011;1685;53.104;8.228;2023-02-18T11:04:12;10.10;;;6.23;;
3343;SDS011;1685;53.104;8.228;2023-02-18T11:06:41;9.30;;;5.73;;
3343;SDS011;1685;53.104;8.228;2023-02-18T11:09:20;6.50;;;4.83;;
3343;SDS011;1685;53.104;8.228;2023-02-18T11:12:01;5.90;;;5.30;;
3343;SDS011;1685;53.104;8.228;2023-02-18T11:14:37;10.30;;;6.10;;
3343;SDS011;1685;53.104;8.228;2023-02-18T11:17:14;12.20;;;6.47;;
3343;SDS011;1685;53.104;8.228;2023-02-18T11:19:45;8.23;;;5.80;;
3343;SDS011;1685;53.104;8.228;2023-02-18T11:22:18;9.80;;;6.00;;
3343;SDS011;1685;53.104;8.228;2023-02-18T11:24:48;9.00;;;6.93;;
3343;SDS011;1685;53.104;8.228;2023-02-18T11:27:26;8.70;;;5.80;;
3343;SDS011;1685;53.104;8.228;2023-02-18T11:29:59;9.07;;;4.60;;
3343;SDS011;1685;53.104;8.228;2023-02-18T11:32:28;10.33;;;4.87;;
3343;SDS011;1685;53.104;8.228;2023-02-18T11:34:58;14.63;;;4.93;;
3343;SDS011;1685;53.104;8.228;2023-02-18T11:37:26;14.90;;;4.93;;
3343;SDS011;1685;53.104;8.228;2023-02-18T11:39:53;25.20;;;5.20;;
3343;SDS011;1685;53.104;8.228;2023-02-18T11:42:22;6.10;;;4.70;;
3343;SDS011;1685;53.104;8.228;2023-02-18T11:44:53;9.30;;;4.90;;
3343;SDS011;1685;53.104;8.228;2023-02-18T11:47:22;10.17;;;6.20;;
3343;SDS011;1685;53.104;8.228;2023-02-18T11:49:59;10.43;;;5.37;;
3343;SDS011;1685;53.104;8.228;2023-02-18T11:52:32;11.90;;;5.77;;
3343;SDS011;1685;53.104;8.228;2023-02-18T11:55:03;13.00;;;5.30;;
3343;SDS011;1685;53.104;8.228;2023-02-18T11:57:33;12.60;;;6.03;;
3343;SDS011;1685;53.104;8.228;2023-02-18T12:00:04;20.97;;;6.40;;
3343;SDS011;1685;53.104;8.228;2023-02-18T12:02:42;21.73;;;6.83;;
3343;SDS011;1685;53.104;8.228;2023-02-18T12:05:10;22.60;;;5.73;;
3343;SDS011;1685;53.104;8.228;2023-02-18T12:07:42;14.30;;;6.27;;
3343;SDS011;1685;53.104;8.228;2023-02-18T12:10:11;16.87;;;6.83;;
3343;SDS011;1685;53.104;8.228;2023-02-18T12:12:42;14.57;;;6.70;;
3343;SDS011;1685;53.104;8.228;2023-02-18T12:15:15;16.67;;;5.40;;
3343;SDS011;1685;53.104;8.228;2023-02-18T12:17:47;14.73;;;6.87;;
3343;SDS011;1685;53.104;8.228;2023-02-18T12:23:15;16.77;;;6.63;;
3343;SDS011;1685;53.104;8.228;2023-02-18T12:25:51;24.03;;;7.00;;
3343;SDS011;1685;53.104;8.228;2023-02-18T12:28:28;20.57;;;6.60;;
3343;SDS011;1685;53.104;8.228;2023-02-18T12:31:15;26.20;;;5.80;;
3343;SDS011;1685;53.104;8.228;2023-02-18T12:34:16;17.30;;;4.73;;
3343;SDS011;1685;53.104;8.228;2023-02-18T12:36:59;29.83;;;6.20;;
3343;SDS011;1685;53.104;8.228;2023-02-18T12:39:40;14.57;;;6.77;;
3343;SDS011;1685;53.104;8.228;2023-02-18T12:42:24;18.20;;;6.17;;
3343;SDS011;1685;53.104;8.228;2023-02-18T12:45:18;31.27;;;5.60;;
3343;SDS011;1685;53.104;8.228;2023-02-18T12:48:16;21.83;;;6.70;;
3343;SDS011;1685;53.104;8.228;2023-02-18T12:50:54;16.20;;;5.77;;
3343;SDS011;1685;53.104;8.228;2023-02-18T12:53:37;9.80;;;4.60;;
3343;SDS011;1685;53.104;8.228;2023-02-18T12:56:17;23.93;;;4.83;;
3343;SDS011;1685;53.104;8.228;2023-02-18T12:59:07;14.33;;;5.07;;
3343;SDS011;1685;53.104;8.228;2023-02-18T13:01:43;21.50;;;5.33;;
3343;SDS011;1685;53.104;8.228;2023-02-18T13:04:22;17.23;;;5.60;;
3343;SDS011;1685;53.104;8.228;2023-02-18T13:07:04;19.13;;;5.90;;
3343;SDS011;1685;53.104;8.228;2023-02-18T13:10:11;12.00;;;4.90;;
3343;SDS011;1685;53.104;8.228;2023-02-18T13:12:56;18.07;;;5.50;;
3343;SDS011;1685;53.104;8.228;2023-02-18T13:15:28;13.07;;;5.37;;
3343;SDS011;1685;53.104;8.228;2023-02-18T13:18:02;14.27;;;4.53;;
3343;SDS011;1685;53.104;8.228;2023-02-18T13:20:35;17.23;;;5.37;;
3343;SDS011;1685;53.104;8.228;2023-02-18T13:23:05;17.47;;;5.63;;
3343;SDS011;1685;53.104;8.228;2023-02-18T13:25:41;17.20;;;4.60;;
3343;SDS011;1685;53.104;8.228;2023-02-18T13:28:11;15.90;;;4.80;;
3343;SDS011;1685;53.104;8.228;2023-02-18T13:30:46;15.23;;;5.40;;
3343;SDS011;1685;53.104;8.228;2023-02-18T13:33:18;22.43;;;6.30;;
3343;SDS011;1685;53.104;8.228;2023-02-18T13:35:56;16.33;;;4.67;;
3343;SDS011;1685;53.104;8.228;2023-02-18T13:38:29;9.37;;;4.07;;
3343;SDS011;1685;53.104;8.228;2023-02-18T13:41:13;18.97;;;8.40;;
3343;SDS011;1685;53.104;8.228;2023-02-18T13:43:40;19.73;;;5.40;;
3343;SDS011;1685;53.104;8.228;2023-02-18T13:46:09;13.97;;;4.60;;
3343;SDS011;1685;53.104;8.228;2023-02-18T13:48:42;8.83;;;4.73;;
3343;SDS011;1685;53.104;8.228;2023-02-18T13:51:14;24.40;;;5.00;;
3343;SDS011;1685;53.104;8.228;2023-02-18T13:53:42;15.00;;;5.10;;
3343;SDS011;1685;53.104;8.228;2023-02-18T13:56:19;8.57;;;4.10;;
3343;SDS011;1685;53.104;8.228;2023-02-18T13:58:48;21.80;;;4.80;;
3343;SDS011;1685;53.104;8.228;2023-02-18T14:01:21;16.93;;;5.20;;
3343;SDS011;1685;53.104;8.228;2023-02-18T14:03:58;16.27;;;4.33;;
3343;SDS011;1685;53.104;8.228;2023-02-18T14:06:28;10.50;;;4.27;;
3343;SDS011;1685;53.104;8.228;2023-02-18T14:15:09;9.90;;;3.67;;
3343;SDS011;1685;53.104;8.228;2023-02-18T14:18:30;7.70;;;3.43;;
3343;SDS011;1685;53.104;8.228;2023-02-18T14:21:16;11.43;;;3.23;;
3343;SDS011;1685;53.104;8.228;2023-02-18T14:24:00;15.33;;;3.00;;
3343;SDS011;1685;53.104;8.228;2023-02-18T14:26:29;13.53;;;3.50;;
3343;SDS011;1685;53.104;8.228;2023-02-18T14:28:59;13.03;;;3.10;;
3343;SDS011;1685;53.104;8.228;2023-02-18T14:31:46;14.77;;;2.87;;
3343;SDS011;1685;53.104;8.228;2023-02-18T14:37:33;20.73;;;3.33;;
3343;SDS011;1685;53.104;8.228;2023-02-18T14:40:15;13.90;;;3.43;;
3343;SDS011;1685;53.104;8.228;2023-02-18T14:43:01;13.40;;;3.60;;
3343;SDS011;1685;53.104;8.228;2023-02-18T14:48:34;22.83;;;4.63;;
3343;SDS011;1685;53.104;8.228;2023-02-18T14:51:22;14.30;;;3.30;;
3343;SDS011;1685;53.104;8.228;2023-02-18T14:53:51;12.43;;;2.97;;
3343;SDS011;1685;53.104;8.228;2023-02-18T14:56:20;21.70;;;3.50;;
3343;SDS011;1685;53.104;8.228;2023-02-18T14:58:48;11.27;;;2.40;;
3343;SDS011;1685;53.104;8.228;2023-02-18T15:01:20;16.77;;;3.40;;
3343;SDS011;1685;53.104;8.228;2023-02-18T15:03:48;22.60;;;3.97;;
3343;SDS011;1685;53.104;8.228;2023-02-18T15:06:24;13.90;;;3.70;;
3343;SDS011;1685;53.104;8.228;2023-02-18T15:08:53;8.97;;;2.67;;
3343;SDS011;1685;53.104;8.228;2023-02-18T15:11:22;18.53;;;3.00;;
3343;SDS011;1685;53.104;8.228;2023-02-18T15:13:52;12.50;;;2.90;;
3343;SDS011;1685;53.104;8.228;2023-02-18T15:16:19;10.90;;;2.90;;
3343;SDS011;1685;53.104;8.228;2023-02-18T15:18:55;8.53;;;3.13;;
3343;SDS011;1685;53.104;8.228;2023-02-18T15:21:24;20.10;;;3.20;;
3343;SDS011;1685;53.104;8.228;2023-02-18T15:23:54;11.97;;;2.73;;
3343;SDS011;1685;53.104;8.228;2023-02-18T15:26:27;9.57;;;2.57;;
3343;SDS011;1685;53.104;8.228;2023-02-18T15:28:57;11.73;;;2.37;;
3343;SDS011;1685;53.104;8.228;2023-02-18T15:31:26;5.60;;;2.60;;
3343;SDS011;1685;53.104;8.228;2023-02-18T15:33:53;9.33;;;2.43;;
3343;SDS011;1685;53.104;8.228;2023-02-18T15:36:20;9.60;;;2.90;;
3343;SDS011;1685;53.104;8.228;2023-02-18T15:38:47;7.23;;;2.53;;
3343;SDS011;1685;53.104;8.228;2023-02-18T15:41:15;6.00;;;3.10;;
3343;SDS011;1685;53.104;8.228;2023-02-18T15:43:56;15.83;;;3.33;;